createdAt,value
2023-04-30T00:00:11.254Z,102109.94
2023-04-30T00:02:39.624Z,102109.75
2023-04-30T00:05:08.068Z,102110.50
2023-04-30T00:07:36.122Z,102108.66
2023-04-30T00:10:05.627Z,102105.97
2023-04-30T00:12:34.837Z,102102.38
2023-04-30T00:15:02.649Z,102105.03
2023-04-30T00:17:30.524Z,102118.41
2023-04-30T00:19:58.312Z,102121.94
2023-04-30T00:22:26.137Z,102118.31
2023-04-30T00:24:54.055Z,102118.19
2023-04-30T00:27:21.896Z,102116.41
2023-04-30T00:29:51.250Z,102117.22
2023-04-30T00:32:19.207Z,102119.88
2023-04-30T00:34:47.257Z,102121.63
2023-04-30T00:37:15.096Z,102115.34
2023-04-30T00:39:42.944Z,102116.09
2023-04-30T00:42:10.838Z,102129.41
2023-04-30T00:44:38.583Z,102114.34
2023-04-30T00:47:07.735Z,102117.03
2023-04-30T00:49:35.724Z,102115.28
2023-04-30T00:52:03.641Z,102117.94
2023-04-30T00:54:31.746Z,102116.19
2023-04-30T00:56:59.874Z,102112.59
2023-04-30T00:59:30.100Z,102117.03
2023-04-30T01:01:57.981Z,102116.06
2023-04-30T01:04:27.504Z,102120.34
2023-04-30T01:06:55.562Z,102121.09
2023-04-30T01:09:23.549Z,102118.41
2023-04-30T01:12:04.746Z,102119.31
2023-04-30T01:14:41.949Z,102121.94
2023-04-30T01:17:18.753Z,102121.00
2023-04-30T01:19:48.240Z,102115.66
2023-04-30T01:22:32.990Z,102115.63
2023-04-30T01:25:20.311Z,102110.22
2023-04-30T01:28:15.936Z,102115.38
2023-04-30T01:30:45.792Z,102114.44
2023-04-30T01:33:13.828Z,102110.78
2023-04-30T01:35:58.114Z,102110.63
2023-04-30T01:38:35.917Z,102116.81
2023-04-30T01:41:11.670Z,102114.94
2023-04-30T01:43:51.061Z,102122.91
2023-04-30T01:46:25.753Z,102117.63
2023-04-30T01:48:59.970Z,102114.88
2023-04-30T01:51:33.795Z,102113.91
2023-04-30T01:54:07.250Z,102118.25
2023-04-30T01:56:41.866Z,102126.25
2023-04-30T01:59:12.036Z,102115.50
2023-04-30T02:01:39.886Z,102116.47
2023-04-30T02:04:07.703Z,102115.53
2023-04-30T02:06:35.734Z,102126.03
2023-04-30T02:09:05.425Z,102125.19
2023-04-30T02:11:33.437Z,102123.41
2023-04-30T02:14:01.271Z,102126.91
2023-04-30T02:16:30.458Z,102135.66
2023-04-30T02:18:58.272Z,102135.66
2023-04-30T02:21:27.289Z,102128.34
2023-04-30T02:23:55.528Z,102132.66
2023-04-30T02:26:23.304Z,102127.13
2023-04-30T02:28:51.008Z,102135.06
2023-04-30T02:31:18.981Z,102135.00
2023-04-30T02:33:48.360Z,102121.56
2023-04-30T02:36:16.105Z,102126.91
2023-04-30T02:38:43.822Z,102121.38
2023-04-30T02:41:11.530Z,102122.34
2023-04-30T02:43:39.329Z,102125.81
2023-04-30T02:46:07.163Z,102121.34
2023-04-30T02:48:34.890Z,102128.44
2023-04-30T02:51:04.644Z,102127.41
2023-04-30T02:53:32.425Z,102123.16
2023-04-30T02:56:00.650Z,102121.53
2023-04-30T02:58:28.468Z,102124.28
2023-04-30T03:00:56.351Z,102119.06
2023-04-30T03:03:24.197Z,102112.88
2023-04-30T03:05:52.079Z,102114.63
2023-04-30T03:08:21.240Z,102109.19
2023-04-30T03:10:49.069Z,102103.84
2023-04-30T03:13:16.883Z,102112.66
2023-04-30T03:15:45.232Z,102109.13
2023-04-30T03:18:13.148Z,102106.47
2023-04-30T03:20:41.016Z,102110.91
2023-04-30T03:23:08.733Z,102110.06
2023-04-30T03:25:40.476Z,102110.75
2023-04-30T03:28:08.234Z,102111.56
2023-04-30T03:30:36.584Z,102112.38
2023-04-30T03:33:06.644Z,102122.09
2023-04-30T03:35:34.656Z,102118.59
2023-04-30T03:38:02.444Z,102123.75
2023-04-30T03:40:30.193Z,102119.31
2023-04-30T03:42:59.440Z,102113.81
2023-04-30T03:45:27.239Z,102114.75
2023-04-30T03:47:55.216Z,102114.56
2023-04-30T03:50:23.019Z,102116.28
2023-04-30T03:52:50.800Z,102121.59
2023-04-30T03:55:18.795Z,102133.19
2023-04-30T03:57:46.604Z,102128.03
2023-04-30T04:00:16.309Z,102132.47
2023-04-30T04:02:44.323Z,102126.97
2023-04-30T04:05:12.135Z,102127.66
2023-04-30T04:07:39.942Z,102125.78
2023-04-30T04:10:08.855Z,102121.16
2023-04-30T04:12:36.956Z,102130.97
2023-04-30T04:15:05.149Z,102131.88
2023-04-30T04:17:34.302Z,102122.97
2023-04-30T04:20:02.124Z,102119.56
2023-04-30T04:22:29.921Z,102122.31
2023-04-30T04:24:57.683Z,102121.34
2023-04-30T04:27:25.450Z,102114.03
2023-04-30T04:29:55.165Z,102133.59
2023-04-30T04:32:24.583Z,102129.28
2023-04-30T04:34:55.354Z,102131.97
2023-04-30T04:37:23.418Z,102136.53
2023-04-30T04:39:51.602Z,102127.66
2023-04-30T04:42:20.080Z,102136.53
2023-04-30T04:44:48.135Z,102142.88
2023-04-30T04:47:16.703Z,102135.94
2023-04-30T04:49:44.483Z,102139.63
2023-04-30T04:52:13.663Z,102137.97
2023-04-30T04:54:41.546Z,102143.31
2023-04-30T04:57:09.333Z,102146.94
2023-04-30T04:59:37.102Z,102146.91
2023-04-30T05:02:04.937Z,102150.34
2023-04-30T05:04:32.817Z,102152.16
2023-04-30T05:07:00.659Z,102151.53
2023-04-30T05:09:29.750Z,102146.53
2023-04-30T05:11:57.491Z,102146.63
2023-04-30T05:14:25.358Z,102144.97
2023-04-30T05:16:53.354Z,102151.38
2023-04-30T05:19:21.049Z,102147.06
2023-04-30T05:21:48.840Z,102148.97
2023-04-30T05:24:16.669Z,102142.00
2023-04-30T05:26:45.871Z,102145.56
2023-04-30T05:29:14.818Z,102150.09
2023-04-30T05:31:42.845Z,102149.34
2023-04-30T05:34:10.600Z,102152.16
2023-04-30T05:36:39.136Z,102156.63
2023-04-30T05:39:06.883Z,102157.63
2023-04-30T05:41:34.690Z,102154.97
2023-04-30T05:44:05.059Z,102157.66
2023-04-30T05:46:32.984Z,102156.75
2023-04-30T05:49:00.856Z,102150.72
2023-04-30T05:51:29.402Z,102154.47
2023-04-30T05:53:57.573Z,102153.69
2023-04-30T05:56:26.150Z,102151.22
2023-04-30T05:58:53.951Z,102154.09
2023-04-30T06:01:24.411Z,102159.59
2023-04-30T06:03:52.429Z,102151.78
2023-04-30T06:06:20.412Z,102160.84
2023-04-30T06:08:48.318Z,102156.47
2023-04-30T06:11:16.463Z,102146.81
2023-04-30T06:13:44.500Z,102151.38
2023-04-30T06:16:12.659Z,102160.34
2023-04-30T06:18:42.050Z,102159.56
2023-04-30T06:21:09.878Z,102157.00
2023-04-30T06:23:38.607Z,102154.44
2023-04-30T06:26:06.368Z,102160.75
2023-04-30T06:28:34.232Z,102160.84
2023-04-30T06:31:02.095Z,102165.38
2023-04-30T06:33:30.167Z,102159.31
2023-04-30T06:36:00.639Z,102166.53
2023-04-30T06:38:28.542Z,102160.41
2023-04-30T06:40:56.512Z,102164.94
2023-04-30T06:43:25.741Z,102164.09
2023-04-30T06:45:53.572Z,102172.19
2023-04-30T06:48:21.447Z,102165.16
2023-04-30T06:50:49.348Z,102168.75
2023-04-30T06:53:18.684Z,102158.03
2023-04-30T06:55:47.530Z,102164.22
2023-04-30T06:58:15.432Z,102166.91
2023-04-30T07:00:43.914Z,102167.94
2023-04-30T07:03:11.905Z,102153.72
2023-04-30T07:05:39.889Z,102148.38
2023-04-30T07:08:08.729Z,102156.53
2023-04-30T07:10:38.372Z,102158.41
2023-04-30T07:13:08.330Z,102152.22
2023-04-30T07:15:37.577Z,102146.91
2023-04-30T07:18:07.536Z,102157.72
2023-04-30T07:20:35.682Z,102160.41
2023-04-30T07:23:03.593Z,102159.53
2023-04-30T07:25:31.549Z,102153.34
2023-04-30T07:28:01.181Z,102141.84
2023-04-30T07:30:29.028Z,102142.81
2023-04-30T07:32:57.623Z,102150.91
2023-04-30T07:35:25.685Z,102158.09
2023-04-30T07:37:53.553Z,102158.19
2023-04-30T07:40:29.149Z,102159.13
2023-04-30T07:43:05.701Z,102154.66
2023-04-30T07:45:34.839Z,102157.34
2023-04-30T07:48:03.112Z,102157.41
2023-04-30T07:50:34.009Z,102165.47
2023-04-30T07:53:02.938Z,102159.19
2023-04-30T07:55:31.247Z,102158.31
2023-04-30T07:58:00.025Z,102161.88
2023-04-30T08:00:31.068Z,102159.25
2023-04-30T08:03:00.399Z,102158.41
2023-04-30T08:05:28.419Z,102160.22
2023-04-30T08:07:56.175Z,102155.75
2023-04-30T08:10:24.284Z,102161.97
2023-04-30T08:12:53.150Z,102155.72
2023-04-30T08:15:22.224Z,102160.19
2023-04-30T08:17:53.016Z,102159.34
2023-04-30T08:20:23.917Z,102156.69
2023-04-30T08:22:52.309Z,102170.16
2023-04-30T08:25:20.807Z,102164.81
2023-04-30T08:27:49.033Z,102152.28
2023-04-30T08:30:17.390Z,102155.06
2023-04-30T08:32:46.115Z,102148.78
2023-04-30T08:35:17.201Z,102150.59
2023-04-30T08:37:45.226Z,102152.38
2023-04-30T08:40:14.128Z,102147.00
2023-04-30T08:42:46.349Z,102144.34
2023-04-30T08:45:14.691Z,102149.69
2023-04-30T08:47:43.072Z,102148.81
2023-04-30T08:50:10.994Z,102143.41
2023-04-30T08:52:41.506Z,102153.28
2023-04-30T08:55:11.280Z,102152.34
2023-04-30T08:57:39.750Z,102139.81
2023-04-30T09:00:08.890Z,102150.53
2023-04-30T09:02:40.776Z,102150.50
2023-04-30T09:05:12.636Z,102141.50
2023-04-30T09:07:48.921Z,102131.66
2023-04-30T09:10:24.093Z,102136.09
2023-04-30T09:13:01.694Z,102130.69
2023-04-30T09:15:30.488Z,102128.00
2023-04-30T09:18:09.579Z,102128.88
2023-04-30T09:20:38.630Z,102137.78
2023-04-30T09:23:09.400Z,102138.69
2023-04-30T09:25:41.760Z,102133.25
2023-04-30T09:28:14.230Z,102134.97
2023-04-30T09:30:42.884Z,102127.75
2023-04-30T09:33:12.284Z,102126.78
2023-04-30T09:35:41.825Z,102117.84
2023-04-30T09:38:27.590Z,102116.94
2023-04-30T09:40:55.444Z,102108.75
2023-04-30T09:43:23.367Z,102106.88
2023-04-30T09:45:51.727Z,102096.00
2023-04-30T09:48:22.288Z,102104.00
2023-04-30T09:50:50.613Z,102103.16
2023-04-30T09:53:21.615Z,102100.44
2023-04-30T09:55:50.924Z,102098.66
2023-04-30T09:58:20.576Z,102090.53
2023-04-30T10:00:49.630Z,102093.25
2023-04-30T10:03:17.725Z,102091.41
2023-04-30T10:05:48.437Z,102092.22
2023-04-30T10:08:24.208Z,102092.16
2023-04-30T10:10:59.576Z,102091.22
2023-04-30T10:13:31.448Z,102087.59
2023-04-30T10:16:03.193Z,102090.34
2023-04-30T10:18:35.738Z,102088.59
2023-04-30T10:21:10.366Z,102087.59
2023-04-30T10:23:42.255Z,102086.63
2023-04-30T10:26:12.374Z,102076.91
2023-04-30T10:28:40.851Z,102080.59
2023-04-30T10:31:10.765Z,102081.53
2023-04-30T10:33:50.026Z,102079.53
2023-04-30T10:36:27.867Z,102075.72
2023-04-30T10:38:58.308Z,102079.19
2023-04-30T10:41:28.538Z,102072.88
2023-04-30T10:44:01.843Z,102067.28
2023-04-30T10:46:30.189Z,102060.78
2023-04-30T10:48:58.285Z,102047.94
2023-04-30T10:51:46.391Z,102050.41
2023-04-30T10:54:18.846Z,102055.84
2023-04-30T10:56:48.187Z,102045.09
2023-04-30T10:59:16.397Z,102044.94
2023-04-30T11:01:58.732Z,102039.78
2023-04-30T11:04:27.438Z,102041.66
2023-04-30T11:07:08.721Z,102045.13
2023-04-30T11:09:42.463Z,102035.19
2023-04-30T11:12:16.366Z,102025.16
2023-04-30T11:14:46.492Z,102030.41
2023-04-30T11:17:25.245Z,102023.97
2023-04-30T11:19:55.055Z,102022.19
2023-04-30T11:22:24.809Z,102016.00
2023-04-30T11:25:05.770Z,102009.59
2023-04-30T11:27:35.520Z,102012.25
2023-04-30T11:30:05.527Z,102005.75
2023-04-30T11:32:35.915Z,102010.69
2023-04-30T11:35:04.944Z,102009.50
2023-04-30T11:37:35.814Z,102003.94
2023-04-30T11:40:07.975Z,102008.72
2023-04-30T11:42:36.727Z,102000.41
2023-04-30T11:45:06.832Z,102010.34
2023-04-30T11:47:45.686Z,101995.41
2023-04-30T11:50:15.259Z,101995.28
2023-04-30T11:52:44.216Z,101992.47
2023-04-30T11:55:18.209Z,101996.03
2023-04-30T11:57:47.750Z,101986.06
2023-04-30T12:00:17.833Z,101994.91
2023-04-30T12:02:48.293Z,101993.88
2023-04-30T12:05:18.113Z,101998.28
2023-04-30T12:07:48.189Z,101986.50
2023-04-30T12:10:17.962Z,101985.34
2023-04-30T12:12:46.122Z,101968.69
2023-04-30T12:15:18.884Z,101978.59
2023-04-30T12:17:48.160Z,101972.19
2023-04-30T12:20:17.170Z,101972.91
2023-04-30T12:22:45.721Z,101972.50
2023-04-30T12:25:15.116Z,101961.31
2023-04-30T12:27:48.936Z,101964.63
2023-04-30T12:30:21.339Z,101964.28
2023-04-30T12:32:51.768Z,101960.56
2023-04-30T12:35:22.076Z,101962.19
2023-04-30T12:37:51.338Z,101962.97
2023-04-30T12:40:20.571Z,101959.59
2023-04-30T12:42:51.995Z,101960.66
2023-04-30T12:45:44.520Z,101956.81
2023-04-30T12:48:12.620Z,101956.31
2023-04-30T12:50:40.851Z,101957.81
2023-04-30T12:53:10.026Z,101947.81
2023-04-30T12:55:39.508Z,101949.34
2023-04-30T12:58:10.932Z,101945.34
2023-04-30T13:00:50.333Z,101946.59
2023-04-30T13:03:21.188Z,101941.84
2023-04-30T13:05:50.888Z,101945.44
2023-04-30T13:08:20.797Z,101935.84
2023-04-30T13:10:50.110Z,101918.81
2023-04-30T13:13:20.472Z,101921.91
2023-04-30T13:15:48.597Z,101925.00
2023-04-30T13:18:17.009Z,101915.50
2023-04-30T13:20:46.005Z,101918.00
2023-04-30T13:23:14.090Z,101915.38
2023-04-30T13:25:42.788Z,101910.81
2023-04-30T13:28:10.761Z,101919.72
2023-04-30T13:30:41.217Z,101916.19
2023-04-30T13:33:09.584Z,101912.50
2023-04-30T13:35:39.086Z,101905.47
2023-04-30T13:38:07.436Z,101907.09
2023-04-30T13:40:35.593Z,101909.66
2023-04-30T13:43:04.385Z,101902.50
2023-04-30T13:45:32.384Z,101900.38
2023-04-30T13:48:01.876Z,101897.34
2023-04-30T13:50:30.804Z,101893.34
2023-04-30T13:52:59.501Z,101898.53
2023-04-30T13:55:30.003Z,101895.72
2023-04-30T13:57:58.726Z,101884.81
2023-04-30T14:00:26.826Z,101889.31
2023-04-30T14:02:55.810Z,101873.72
2023-04-30T14:05:25.466Z,101874.69
2023-04-30T14:07:53.451Z,101874.53
2023-04-30T14:10:21.687Z,101881.03
2023-04-30T14:12:49.785Z,101875.34
2023-04-30T14:15:17.998Z,101868.38
2023-04-30T14:17:46.144Z,101868.88
2023-04-30T14:20:14.996Z,101869.88
2023-04-30T14:22:55.503Z,101866.78
2023-04-30T14:25:24.099Z,101870.81
2023-04-30T14:27:52.533Z,101867.38
2023-04-30T14:30:20.522Z,101861.22
2023-04-30T14:32:48.619Z,101858.78
2023-04-30T14:35:16.766Z,101856.34
2023-04-30T14:37:46.469Z,101848.19
2023-04-30T14:40:16.413Z,101845.19
2023-04-30T14:42:44.536Z,101842.19
2023-04-30T14:45:13.020Z,101845.63
2023-04-30T14:47:42.290Z,101842.25
2023-04-30T14:50:11.207Z,101834.56
2023-04-30T14:52:42.254Z,101836.16
2023-04-30T14:55:12.833Z,101838.22
2023-04-30T14:57:41.302Z,101836.06
2023-04-30T15:00:11.312Z,101838.59
2023-04-30T15:02:39.798Z,101833.53
2023-04-30T15:05:09.222Z,101831.97
2023-04-30T15:07:38.138Z,101838.84
2023-04-30T15:10:08.198Z,101834.13
2023-04-30T15:12:39.957Z,101828.78
2023-04-30T15:15:09.869Z,101833.34
2023-04-30T15:17:41.542Z,101821.66
2023-04-30T15:20:11.043Z,101821.81
2023-04-30T15:22:39.409Z,101823.84
2023-04-30T15:25:13.644Z,101813.97
2023-04-30T15:27:47.748Z,101810.41
2023-04-30T15:30:18.884Z,101811.22
2023-04-30T15:32:48.800Z,101806.63
2023-04-30T15:35:18.832Z,101803.91
2023-04-30T15:37:47.209Z,101802.41
2023-04-30T15:40:18.161Z,101808.00
2023-04-30T15:42:48.230Z,101800.13
2023-04-30T15:45:16.667Z,101797.59
2023-04-30T15:47:45.724Z,101794.75
2023-04-30T15:50:14.205Z,101789.56
2023-04-30T15:52:42.501Z,101788.84
2023-04-30T15:55:11.371Z,101780.66
2023-04-30T15:57:39.542Z,101774.19
2023-04-30T16:00:11.447Z,101773.41
2023-04-30T16:02:41.518Z,101767.16
2023-04-30T16:05:10.518Z,101782.50
2023-04-30T16:07:40.362Z,101767.31
2023-04-30T16:10:11.084Z,101757.78
2023-04-30T16:12:39.489Z,101757.34
2023-04-30T16:15:11.172Z,101756.16
2023-04-30T16:17:39.487Z,101758.84
2023-04-30T16:20:09.228Z,101744.78
2023-04-30T16:22:37.696Z,101757.41
2023-04-30T16:25:08.056Z,101752.88
2023-04-30T16:27:39.625Z,101751.03
2023-04-30T16:30:11.480Z,101743.19
2023-04-30T16:32:46.060Z,101747.50
2023-04-30T16:35:14.666Z,101742.03
2023-04-30T16:37:42.804Z,101744.09
2023-04-30T16:40:12.377Z,101745.38
2023-04-30T16:42:40.671Z,101745.66
2023-04-30T16:45:11.316Z,101752.66
2023-04-30T16:47:41.865Z,101749.75
2023-04-30T16:50:11.205Z,101747.84
2023-04-30T16:52:39.440Z,101748.72
2023-04-30T16:55:11.607Z,101745.19
2023-04-30T16:57:39.667Z,101749.03
2023-04-30T17:00:12.559Z,101736.53
2023-04-30T17:02:41.077Z,101739.38
2023-04-30T17:05:11.097Z,101752.31
2023-04-30T17:07:44.671Z,101743.28
2023-04-30T17:10:14.650Z,101737.00
2023-04-30T17:12:46.167Z,101740.50
2023-04-30T17:15:29.446Z,101733.56
2023-04-30T17:17:58.993Z,101726.44
2023-04-30T17:20:27.266Z,101726.56
2023-04-30T17:22:56.281Z,101725.69
2023-04-30T17:25:24.656Z,101730.47
2023-04-30T17:27:57.576Z,101724.22
2023-04-30T17:30:27.011Z,101726.09
2023-04-30T17:32:56.753Z,101721.84
2023-04-30T17:35:25.438Z,101726.31
2023-04-30T17:37:53.714Z,101715.63
2023-04-30T17:40:22.384Z,101722.22
2023-04-30T17:42:52.066Z,101720.66
2023-04-30T17:45:20.337Z,101719.59
2023-04-30T17:47:49.966Z,101710.53
2023-04-30T17:50:23.818Z,101717.75
2023-04-30T17:53:23.621Z,101710.47
2023-04-30T17:56:30.797Z,101711.47
2023-04-30T17:59:32.371Z,101712.59
2023-04-30T20:04:04.639Z,101716.84
2023-04-30T20:10:30.493Z,101721.47
2023-04-30T20:13:47.954Z,101712.56
2023-04-30T20:17:28.551Z,101713.53
2023-04-30T20:20:28.633Z,101712.72
2023-04-30T20:22:54.855Z,101706.50
2023-04-30T20:25:35.174Z,101710.13
2023-04-30T20:28:44.281Z,101716.47
2023-04-30T20:31:37.419Z,101713.84
2023-04-30T20:38:39.089Z,101711.25
2023-04-30T20:49:09.275Z,101712.22
2023-04-30T20:51:36.851Z,101697.13
2023-04-30T20:54:05.417Z,101708.78
2023-04-30T20:56:34.946Z,101705.22
2023-04-30T20:59:05.902Z,101703.47
2023-04-30T21:01:34.102Z,101701.66
2023-04-30T21:04:04.819Z,101696.28
2023-04-30T21:06:33.241Z,101703.50
2023-04-30T21:09:53.403Z,101694.59
2023-04-30T21:12:23.238Z,101698.22
2023-04-30T21:14:52.143Z,101693.75
2023-04-30T21:17:20.298Z,101696.44
2023-04-30T21:19:53.352Z,101688.38
2023-04-30T21:22:24.152Z,101692.00
2023-04-30T21:24:57.115Z,101692.06
2023-04-30T21:27:26.807Z,101683.09
2023-04-30T21:29:55.236Z,101677.78
2023-04-30T21:32:23.588Z,101676.03
2023-04-30T21:34:53.683Z,101682.31
2023-04-30T21:37:22.199Z,101687.72
2023-04-30T21:39:51.588Z,101680.59
2023-04-30T21:42:22.126Z,101678.81
2023-04-30T21:44:51.862Z,101685.09
2023-04-30T21:47:22.031Z,101685.09
2023-04-30T21:49:50.380Z,101686.91
2023-04-30T21:52:18.622Z,101677.06
2023-04-30T21:54:50.202Z,101672.59
2023-04-30T21:57:19.541Z,101670.00
2023-04-30T21:59:47.753Z,101666.41
2023-04-30T22:02:23.948Z,101655.72
2023-04-30T22:04:58.177Z,101650.38
2023-04-30T22:07:27.577Z,101652.16
2023-04-30T22:10:03.471Z,101649.47
2023-04-30T22:12:32.054Z,101645.88
2023-04-30T22:15:05.530Z,101643.22
2023-04-30T22:17:35.625Z,101636.09
2023-04-30T22:20:27.398Z,101642.34
2023-04-30T22:22:56.015Z,101632.53
2023-04-30T22:25:24.665Z,101629.81
2023-04-30T22:27:52.995Z,101625.34
2023-04-30T22:30:24.445Z,101624.50
2023-04-30T22:32:57.609Z,101625.41
2023-04-30T22:35:29.007Z,101623.59
2023-04-30T22:38:01.956Z,101619.13
2023-04-30T22:40:31.010Z,101620.06
2023-04-30T22:43:00.288Z,101620.09
2023-04-30T22:45:30.997Z,101619.16
2023-04-30T22:48:01.956Z,101617.41
2023-04-30T22:50:32.105Z,101612.09
2023-04-30T22:53:02.857Z,101608.53
2023-04-30T22:55:33.649Z,101610.28
2023-04-30T22:58:02.108Z,101613.88
2023-04-30T23:00:32.651Z,101607.63
2023-04-30T23:03:02.644Z,101604.94
2023-04-30T23:05:31.028Z,101610.34
2023-04-30T23:07:59.363Z,101604.06
2023-04-30T23:10:27.740Z,101609.44
2023-04-30T23:12:56.635Z,101602.28
2023-04-30T23:15:28.487Z,101605.88
2023-04-30T23:17:58.471Z,101606.81
2023-04-30T23:20:28.525Z,101599.66
2023-04-30T23:22:59.977Z,101603.25
2023-04-30T23:25:29.319Z,101595.19
2023-04-30T23:27:58.257Z,101596.13
2023-04-30T23:30:26.811Z,101602.38
2023-04-30T23:32:54.892Z,101595.25
2023-04-30T23:35:27.508Z,101589.91
2023-04-30T23:37:57.371Z,101588.09
2023-04-30T23:40:27.059Z,101589.91
2023-04-30T23:42:55.537Z,101580.97
2023-04-30T23:45:26.040Z,101578.34
2023-04-30T23:47:54.214Z,101573.88
2023-04-30T23:50:22.446Z,101571.19
2023-04-30T23:52:50.686Z,101566.75
2023-04-30T23:55:23.300Z,101564.97
2023-04-30T23:57:53.392Z,101562.31
